Time;durP1;ratioP1;P1;durP2;ratioP2;P2;SDS_P1;SDS_P2;PMS_P1;PMS_P2;Temp;Humidity;BMP_temperature;BMP_pressure;BME280_temperature;BME280_humidity;BME280_pressure;Samples;Min_cycle;Max_cycle;Signal;HPM_P1;HPM_P2
2024/01/14 00:02:43;;;;;;;20.00;6.40;;;;;;;2.21;100.00;100384.75;5947978;29;20056;-71
2024/01/14 00:05:38;;;;;;;13.43;6.20;;;;;;;2.25;100.00;100376.63;5952926;29;20039;-71
2024/01/14 00:08:33;;;;;;;10.87;5.23;;;;;;;2.31;100.00;100383.22;5946536;29;20130;-71
2024/01/14 00:11:29;;;;;;;17.63;5.47;;;;;;;2.38;100.00;100381.84;5954424;29;20031;-71
2024/01/14 00:14:24;;;;;;;17.20;5.07;;;;;;;2.36;100.00;100358.41;5949352;29;20046;-72
2024/01/14 00:17:19;;;;;;;24.00;6.03;;;;;;;2.42;100.00;100374.66;5954940;29;20038;-71
2024/01/14 00:20:15;;;;;;;19.70;6.57;;;;;;;2.41;100.00;100371.19;5959099;29;20051;-71
2024/01/14 00:23:10;;;;;;;16.20;5.78;;;;;;;2.40;100.00;100364.28;5952449;29;20027;-72
2024/01/14 00:26:06;;;;;;;17.50;5.40;;;;;;;2.42;100.00;100368.47;5946520;29;20069;-71
2024/01/14 00:29:02;;;;;;;15.93;5.73;;;;;;;2.38;100.00;100350.47;5951498;29;20287;-72
2024/01/14 00:31:58;;;;;;;15.13;6.57;;;;;;;2.35;100.00;100354.13;5954877;29;20570;-71
2024/01/14 00:34:54;;;;;;;20.45;5.88;;;;;;;2.39;100.00;100363.44;5953354;29;20036;-72
2024/01/14 00:37:49;;;;;;;14.07;4.88;;;;;;;2.40;100.00;100346.81;5950762;28;20483;-72
2024/01/14 00:40:44;;;;;;;16.43;4.90;;;;;;;2.44;100.00;100354.44;5958833;29;20043;-71
2024/01/14 00:43:40;;;;;;;15.20;5.05;;;;;;;2.47;100.00;100356.84;5958566;29;20066;-72
2024/01/14 00:46:35;;;;;;;14.80;4.97;;;;;;;2.40;100.00;100346.81;5956098;29;20045;-72
2024/01/14 00:49:30;;;;;;;12.87;4.13;;;;;;;2.47;100.00;100354.25;5958582;29;20027;-72
2024/01/14 00:52:26;;;;;;;15.20;4.25;;;;;;;2.47;100.00;100342.00;5957150;29;20027;-72
2024/01/14 00:55:21;;;;;;;13.90;4.93;;;;;;;2.44;100.00;100350.06;5955577;29;20042;-72
2024/01/14 00:58:16;;;;;;;18.20;5.28;;;;;;;2.45;100.00;100343.06;5958239;29;20030;-71
2024/01/14 01:01:12;;;;;;;13.93;4.77;;;;;;;2.45;100.00;100345.66;5956989;29;20470;-72
2024/01/14 01:04:07;;;;;;;12.70;5.00;;;;;;;2.50;100.00;100338.34;5957539;29;20299;-71
2024/01/14 01:07:03;;;;;;;12.13;4.60;;;;;;;2.49;100.00;100334.03;5956038;29;20287;-72
2024/01/14 01:09:58;;;;;;;12.07;4.82;;;;;;;2.52;100.00;100326.81;5954313;29;20031;-72
2024/01/14 01:12:53;;;;;;;14.43;4.37;;;;;;;2.51;100.00;100324.28;5951849;29;20038;-72
2024/01/14 01:15:49;;;;;;;14.77;4.63;;;;;;;2.55;100.00;100320.53;5949187;29;20046;-72
2024/01/14 01:18:45;;;;;;;14.70;5.25;;;;;;;2.53;100.00;100311.97;5957602;29;20194;-72
2024/01/14 01:21:40;;;;;;;21.17;5.73;;;;;;;2.53;100.00;100299.69;5952832;29;20087;-72
2024/01/14 01:24:38;;;;;;;18.73;5.50;;;;;;;2.55;100.00;100300.44;5952688;29;20839;-72
2024/01/14 01:27:34;;;;;;;14.48;4.82;;;;;;;2.64;100.00;100307.66;5953648;29;20036;-71
2024/01/14 01:30:29;;;;;;;15.87;4.67;;;;;;;2.54;100.00;100293.53;5955597;29;20023;-72
2024/01/14 01:33:24;;;;;;;13.27;4.77;;;;;;;2.60;100.00;100310.59;5956438;29;20388;-72
2024/01/14 01:36:20;;;;;;;14.30;5.10;;;;;;;2.53;100.00;100302.31;5953467;29;20036;-72
2024/01/14 01:39:15;;;;;;;13.48;4.63;;;;;;;2.52;100.00;100300.66;5947768;29;20050;-72
2024/01/14 01:42:10;;;;;;;13.07;5.30;;;;;;;2.55;100.00;100297.84;5953551;29;20542;-72
2024/01/14 01:45:06;;;;;;;16.63;4.87;;;;;;;2.50;100.00;100286.00;5954102;29;20283;-72
2024/01/14 01:48:02;;;;;;;18.27;5.57;;;;;;;2.50;100.00;100283.41;5948013;29;20024;-72
2024/01/14 01:50:57;;;;;;;17.75;5.53;;;;;;;2.49;100.00;100279.09;5955379;29;20036;-71
2024/01/14 01:53:53;;;;;;;15.17;6.03;;;;;;;2.44;100.00;100271.56;5952436;29;20035;-72
2024/01/14 01:56:49;;;;;;;13.32;5.35;;;;;;;2.42;100.00;100276.03;5954852;29;20364;-72
2024/01/14 01:59:45;;;;;;;16.83;5.55;;;;;;;2.49;100.00;100300.03;5954481;29;20032;-71
2024/01/14 02:02:42;;;;;;;19.98;5.68;;;;;;;2.42;100.00;100278.66;5952880;29;20031;-71
2024/01/14 02:05:40;;;;;;;18.58;5.95;;;;;;;2.47;100.00;100299.28;5956046;29;20031;-71
2024/01/14 02:08:36;;;;;;;15.77;5.57;;;;;;;2.48;100.00;100287.88;5952357;29;20087;-71
2024/01/14 02:11:31;;;;;;;16.70;4.70;;;;;;;2.46;100.00;100295.84;5948001;29;20476;-71
2024/01/14 02:14:27;;;;;;;17.73;6.07;;;;;;;2.40;100.00;100284.00;5956909;29;20055;-71
2024/01/14 02:17:22;;;;;;;19.23;7.07;;;;;;;2.39;100.00;100281.50;5951897;29;20734;-71
2024/01/14 02:20:17;;;;;;;17.20;6.20;;;;;;;2.38;100.00;100274.59;5953403;29;20036;-71
2024/01/14 02:23:16;;;;;;;16.27;5.73;;;;;;;2.36;100.00;100269.44;5950272;29;20039;-71
2024/01/14 02:26:11;;;;;;;14.88;5.35;;;;;;;2.36;100.00;100284.34;5955698;29;20054;-71
2024/01/14 02:29:07;;;;;;;18.23;6.17;;;;;;;2.34;100.00;100276.56;5952492;29;20053;-71
2024/01/14 02:32:02;;;;;;;18.55;5.85;;;;;;;2.28;100.00;100279.59;5952349;29;20035;-71
2024/01/14 02:34:58;;;;;;;13.63;5.03;;;;;;;2.18;100.00;100257.63;5950677;29;20094;-71
2024/01/14 02:37:54;;;;;;;16.30;5.50;;;;;;;2.15;100.00;100255.22;5953171;29;20283;-71
2024/01/14 02:40:50;;;;;;;10.65;4.53;;;;;;;2.13;100.00;100251.88;5951230;29;20047;-71
2024/01/14 02:43:45;;;;;;;10.03;3.13;;;;;;;2.09;100.00;100255.63;5952246;29;20103;-71
2024/01/14 02:46:41;;;;;;;13.17;4.77;;;;;;;2.11;100.00;100264.25;5954003;29;20036;-70
2024/01/14 02:49:37;;;;;;;16.70;6.00;;;;;;;2.09;100.00;100263.47;5946202;29;20130;-71
2024/01/14 02:52:33;;;;;;;18.50;6.28;;;;;;;2.09;100.00;100262.66;5954686;29;20031;-71
2024/01/14 02:55:28;;;;;;;15.50;4.73;;;;;;;2.09;100.00;100258.25;5953469;29;20036;-70
2024/01/14 02:58:24;;;;;;;22.30;6.80;;;;;;;2.15;100.00;100252.63;5953567;29;20066;-71
2024/01/14 03:01:19;;;;;;;20.52;6.75;;;;;;;2.15;100.00;100250.00;5955483;29;20111;-71
2024/01/14 03:04:15;;;;;;;26.17;8.20;;;;;;;2.17;100.00;100252.53;5951301;29;20044;-71
2024/01/14 03:07:10;;;;;;;27.65;8.00;;;;;;;2.17;100.00;100244.69;5951861;29;20039;-71
2024/01/14 03:10:06;;;;;;;22.47;7.63;;;;;;;2.22;100.00;100246.03;5949645;29;20032;-70
2024/01/14 03:13:01;;;;;;;25.63;7.03;;;;;;;2.25;100.00;100245.00;5952577;29;20114;-71
2024/01/14 03:15:56;;;;;;;22.33;7.60;;;;;;;2.23;100.00;100244.25;5953096;29;20062;-71
2024/01/14 03:18:51;;;;;;;21.47;7.23;;;;;;;2.23;100.00;100232.00;5950640;29;20376;-70
2024/01/14 03:21:47;;;;;;;27.17;7.77;;;;;;;2.21;100.00;100231.28;5954405;29;20051;-71
2024/01/14 03:24:43;;;;;;;27.67;7.63;;;;;;;2.31;100.00;100239.34;5950978;29;20032;-71
2024/01/14 03:27:38;;;;;;;26.90;7.82;;;;;;;2.31;100.00;100239.34;5944639;29;20078;-70
2024/01/14 03:30:33;;;;;;;18.87;6.60;;;;;;;2.24;100.00;100218.00;5948925;29;20078;-71
2024/01/14 03:33:28;;;;;;;23.23;7.20;;;;;;;2.28;100.00;100221.25;5951261;29;20034;-71
2024/01/14 03:36:24;;;;;;;24.20;6.63;;;;;;;2.35;100.00;100233.78;5948943;28;20041;-71
2024/01/14 03:39:19;;;;;;;23.67;7.33;;;;;;;2.35;100.00;100236.41;5952510;29;20036;-71
2024/01/14 03:42:14;;;;;;;22.67;8.03;;;;;;;2.37;100.00;100239.75;5951549;29;20036;-71
2024/01/14 03:45:10;;;;;;;20.87;6.20;;;;;;;2.31;100.00;100237.53;5949766;29;20476;-71
2024/01/14 03:48:05;;;;;;;21.60;7.47;;;;;;;2.34;100.00;100239.09;5951929;29;20296;-71
2024/01/14 03:51:00;;;;;;;19.08;6.43;;;;;;;2.28;100.00;100234.31;5948035;29;20126;-71
2024/01/14 03:53:56;;;;;;;23.03;6.03;;;;;;;2.31;100.00;100252.44;5953791;29;20372;-71
2024/01/14 03:56:51;;;;;;;17.43;7.07;;;;;;;2.25;100.00;100226.69;5946892;29;20411;-71
2024/01/14 03:59:46;;;;;;;16.70;6.67;;;;;;;2.24;100.00;100228.47;5955055;29;20028;-71
2024/01/14 04:02:42;;;;;;;15.27;5.13;;;;;;;2.24;100.00;100228.47;5948304;29;20024;-71
2024/01/14 04:05:37;;;;;;;20.10;5.03;;;;;;;2.29;100.00;100234.22;5956159;29;20081;-71
2024/01/14 04:08:33;;;;;;;18.55;5.75;;;;;;;2.25;100.00;100235.38;5956905;29;20035;-71
2024/01/14 04:11:28;;;;;;;15.77;5.07;;;;;;;2.26;100.00;100229.19;5958334;29;20036;-71
2024/01/14 04:14:23;;;;;;;19.10;4.80;;;;;;;2.25;100.00;100218.84;5956640;29;20287;-71
2024/01/14 04:17:19;;;;;;;17.80;4.50;;;;;;;2.24;100.00;100218.00;5956734;29;20035;-71
2024/01/14 04:20:14;;;;;;;19.23;4.60;;;;;;;2.25;100.00;100216.22;5958699;29;20035;-72
2024/01/14 04:23:10;;;;;;;14.75;4.68;;;;;;;2.29;100.00;100228.97;5958167;29;20051;-72
2024/01/14 04:26:06;;;;;;;18.23;5.28;;;;;;;2.26;100.00;100223.94;5959496;29;20190;-71
2024/01/14 04:29:01;;;;;;;16.30;4.43;;;;;;;2.21;100.00;100207.75;5953588;29;20028;-71
2024/01/14 04:31:57;;;;;;;12.35;4.25;;;;;;;2.21;100.00;100219.97;5958271;29;20456;-72
2024/01/14 04:34:52;;;;;;;14.50;4.90;;;;;;;2.09;100.00;100216.41;5949910;29;20036;-72
2024/01/14 04:37:48;;;;;;;13.43;4.47;;;;;;;2.10;100.00;100223.34;5952544;29;20087;-71
2024/01/14 04:40:43;;;;;;;15.03;4.33;;;;;;;2.09;100.00;100215.59;5958370;29;20047;-72
2024/01/14 04:43:38;;;;;;;11.90;4.20;;;;;;;2.08;100.00;100211.31;5954411;29;20055;-71
2024/01/14 04:46:34;;;;;;;12.77;4.20;;;;;;;2.08;100.00;100213.91;5950756;29;20476;-72
2024/01/14 04:49:29;;;;;;;14.40;3.93;;;;;;;2.05;100.00;100207.13;5955604;29;20039;-72
2024/01/14 04:52:24;;;;;;;11.23;3.80;;;;;;;2.04;100.00;100215.09;5962378;29;20051;-72
2024/01/14 04:55:20;;;;;;;13.40;4.53;;;;;;;2.07;100.00;100223.53;5956334;29;20039;-72
2024/01/14 04:58:15;;;;;;;15.80;3.70;;;;;;;2.05;100.00;100214.97;5954268;29;20047;-72
2024/01/14 05:01:10;;;;;;;15.60;4.07;;;;;;;2.07;100.00;100220.06;5956818;29;20280;-72
2024/01/14 05:04:06;;;;;;;19.13;4.53;;;;;;;2.04;100.00;100215.91;5957549;28;20107;-72
2024/01/14 05:07:01;;;;;;;17.90;4.13;;;;;;;2.02;100.00;100212.56;5953061;29;20118;-72
2024/01/14 05:09:56;;;;;;;12.63;4.73;;;;;;;2.05;100.00;100209.75;5955833;29;20031;-73
2024/01/14 05:12:52;;;;;;;11.27;3.80;;;;;;;2.03;100.00;100203.78;5957233;29;20031;-73
2024/01/14 05:15:47;;;;;;;10.37;3.83;;;;;;;2.02;100.00;100201.25;5952544;29;20384;-73
2024/01/14 05:18:42;;;;;;;12.43;3.90;;;;;;;2.00;100.00;100201.38;5951188;29;20035;-73
2024/01/14 05:21:38;;;;;;;16.90;4.03;;;;;;;2.01;100.00;100205.66;5954527;29;21064;-72
2024/01/14 05:24:33;;;;;;;19.40;5.43;;;;;;;2.05;100.00;100209.75;5951852;29;21382;-73
2024/01/14 05:27:28;;;;;;;13.33;4.93;;;;;;;2.04;100.00;100200.22;5953577;29;20330;-73
2024/01/14 05:30:23;;;;;;;14.07;3.80;;;;;;;1.99;100.00;100183.16;5954780;29;20047;-72
2024/01/14 05:33:19;;;;;;;12.80;3.63;;;;;;;2.10;100.00;100199.78;5957179;29;20391;-73
2024/01/14 05:36:15;;;;;;;12.73;3.90;;;;;;;2.08;100.00;100199.06;5953861;29;20044;-73
2024/01/14 05:39:10;;;;;;;11.43;3.70;;;;;;;1.98;100.00;100178.91;5956160;29;20427;-73
2024/01/14 05:42:05;;;;;;;12.23;2.87;;;;;;;2.05;100.00;100187.97;5954515;29;20050;-73
2024/01/14 05:45:01;;;;;;;10.70;3.43;;;;;;;2.07;100.00;100192.16;5954686;29;20043;-73
2024/01/14 05:47:56;;;;;;;11.03;3.23;;;;;;;2.07;100.00;100191.31;5956876;29;20256;-73
2024/01/14 05:50:51;;;;;;;7.18;2.63;;;;;;;2.06;100.00;100181.81;5955566;29;20023;-72
2024/01/14 05:53:47;;;;;;;11.10;3.03;;;;;;;2.14;100.00;100192.59;5954634;29;20373;-72
2024/01/14 05:56:42;;;;;;;12.13;3.38;;;;;;;2.15;100.00;100197.69;5950364;29;20051;-72
2024/01/14 05:59:39;;;;;;;10.32;3.35;;;;;;;2.07;100.00;100188.69;5952852;29;20039;-72
2024/01/14 06:02:34;;;;;;;10.95;2.80;;;;;;;2.12;100.00;100197.91;5954078;29;20032;-72
2024/01/14 06:05:30;;;;;;;10.13;2.80;;;;;;;2.12;100.00;100207.56;5957887;29;20043;-70
2024/01/14 06:08:25;;;;;;;11.17;2.73;;;;;;;2.14;100.00;100206.50;5948490;29;20035;-72
2024/01/14 06:11:20;;;;;;;8.73;2.83;;;;;;;2.16;100.00;100198.53;5951293;29;20090;-72
2024/01/14 06:14:16;;;;;;;15.17;2.87;;;;;;;2.17;100.00;100195.84;5955199;29;20039;-72
2024/01/14 06:17:11;;;;;;;7.10;2.87;;;;;;;2.19;100.00;100201.78;5950354;29;20389;-71
2024/01/14 06:20:07;;;;;;;12.40;2.70;;;;;;;2.14;100.00;100195.19;5953489;29;20268;-71
2024/01/14 06:23:02;;;;;;;11.07;2.17;;;;;;;2.15;100.00;100197.69;5956612;29;20098;-72
2024/01/14 06:25:57;;;;;;;9.95;2.47;;;;;;;2.15;100.00;100197.69;5953046;29;20028;-72
2024/01/14 06:28:53;;;;;;;9.23;2.17;;;;;;;2.19;100.00;100193.94;5950475;29;20032;-72
2024/01/14 06:31:48;;;;;;;9.43;2.13;;;;;;;2.21;100.00;100192.06;5951282;29;20032;-72
2024/01/14 06:34:44;;;;;;;7.30;2.63;;;;;;;2.15;100.00;100189.00;5958072;29;20036;-71
2024/01/14 06:37:39;;;;;;;10.77;2.80;;;;;;;2.18;100.00;100197.50;5954698;29;21226;-71
2024/01/14 06:40:35;;;;;;;8.20;2.70;;;;;;;2.08;100.00;100193.00;5950599;29;20050;-72
2024/01/14 06:43:30;;;;;;;11.93;2.70;;;;;;;2.05;100.00;100185.38;5945081;29;20020;-72
2024/01/14 06:46:26;;;;;;;9.88;2.40;;;;;;;2.02;100.00;100182.97;5952849;29;20550;-71
2024/01/14 06:49:21;;;;;;;12.77;2.80;;;;;;;2.06;100.00;100197.50;5950011;29;20071;-72
2024/01/14 06:52:22;;;;;;;14.43;4.00;;;;;;;2.02;100.00;100204.72;5952362;29;20123;-73
2024/01/14 06:55:17;;;;;;;18.48;5.10;;;;;;;2.03;100.00;100198.56;5953708;29;20515;-72
2024/01/14 06:58:12;;;;;;;15.70;5.65;;;;;;;2.02;100.00;100202.09;5955125;29;20036;-73
2024/01/14 07:01:08;;;;;;;21.13;5.70;;;;;;;1.98;100.00;100195.44;5943084;28;20044;-72
2024/01/14 07:04:03;;;;;;;20.77;5.27;;;;;;;1.98;100.00;100200.66;5940192;29;20111;-73
2024/01/14 07:06:58;;;;;;;21.48;5.43;;;;;;;1.93;100.00;100196.69;5948844;29;20767;-73
2024/01/14 07:09:54;;;;;;;16.17;4.47;;;;;;;1.96;100.00;100199.09;5960530;29;20042;-72
2024/01/14 07:12:49;;;;;;;27.43;5.93;;;;;;;1.90;100.00;100184.66;5951930;29;20035;-73
2024/01/14 07:15:44;;;;;;;15.13;4.43;;;;;;;1.92;100.00;100184.53;5953620;29;20468;-73
2024/01/14 07:18:39;;;;;;;17.53;5.30;;;;;;;1.97;100.00;100191.13;5944072;29;20043;-73
2024/01/14 07:21:35;;;;;;;20.23;4.90;;;;;;;1.90;100.00;100176.81;5949722;29;20079;-72
2024/01/14 07:24:30;;;;;;;14.27;5.40;;;;;;;1.91;100.00;100173.22;5957163;29;20119;-72
2024/01/14 07:27:25;;;;;;;17.70;5.25;;;;;;;1.91;100.00;100173.22;5948850;29;20513;-72
2024/01/14 07:30:21;;;;;;;18.67;5.57;;;;;;;1.91;100.00;100188.91;5942209;29;20039;-73
2024/01/14 07:33:16;;;;;;;18.03;5.23;;;;;;;1.90;100.00;100182.03;5945071;29;20047;-72
2024/01/14 07:36:11;;;;;;;17.40;4.17;;;;;;;1.95;100.00;100190.41;5941912;29;20062;-72
2024/01/14 07:39:07;;;;;;;15.43;3.97;;;;;;;1.86;100.00;100177.94;5951755;29;20472;-73
2024/01/14 07:42:03;;;;;;;8.53;3.43;;;;;;;1.73;100.00;100164.03;5955373;29;20062;-73
2024/01/14 07:44:59;;;;;;;11.90;3.63;;;;;;;1.89;100.00;100180.34;5953814;29;20106;-73
2024/01/14 07:47:54;;;;;;;13.77;4.00;;;;;;;1.96;100.00;100191.25;5952350;29;20036;-72
2024/01/14 07:50:49;;;;;;;14.87;3.20;;;;;;;1.97;100.00;100183.28;5942279;29;20035;-72
2024/01/14 07:53:45;;;;;;;12.40;3.23;;;;;;;2.03;100.00;100193.31;5947408;29;20416;-72
2024/01/14 07:56:40;;;;;;;16.10;3.80;;;;;;;1.96;100.00;100189.44;5953500;29;20031;-72
2024/01/14 07:59:35;;;;;;;12.27;3.70;;;;;;;2.01;100.00;100189.97;5954215;29;20119;-72
2024/01/14 08:02:31;;;;;;;17.93;5.17;;;;;;;2.05;100.00;100206.28;5954576;29;20074;-72
2024/01/14 08:05:26;;;;;;;17.58;5.72;;;;;;;2.05;100.00;100204.50;5948898;29;20055;-72
2024/01/14 08:08:22;;;;;;;19.93;5.47;;;;;;;2.07;100.00;100194.78;5952091;29;20032;-71
2024/01/14 08:11:17;;;;;;;15.77;3.87;;;;;;;2.12;100.00;100204.94;5949980;29;20031;-72
2024/01/14 08:14:13;;;;;;;11.00;3.23;;;;;;;2.11;100.00;100200.63;5952656;29;20036;-72
2024/01/14 08:17:09;;;;;;;17.27;3.88;;;;;;;2.09;100.00;100199.91;5955873;29;20067;-72
2024/01/14 08:20:05;;;;;;;12.63;2.97;;;;;;;2.06;100.00;100193.13;5946366;29;20040;-72
2024/01/14 08:23:01;;;;;;;10.02;2.38;;;;;;;2.08;100.00;100191.22;5956306;29;20380;-72
2024/01/14 08:25:57;;;;;;;11.95;2.58;;;;;;;2.14;100.00;100192.59;5951265;29;20071;-72
2024/01/14 08:28:52;;;;;;;10.52;2.92;;;;;;;2.10;100.00;100186.72;5949630;29;20035;-72
2024/01/14 08:31:48;;;;;;;12.33;2.90;;;;;;;2.17;100.00;100206.28;5946134;29;20032;-72
2024/01/14 08:34:43;;;;;;;11.27;2.30;;;;;;;2.14;100.00;100201.28;5950005;29;20039;-72
2024/01/14 08:37:41;;;;;;;10.73;2.10;;;;;;;2.10;100.00;100191.94;5946102;29;20035;-72
2024/01/14 08:40:36;;;;;;;6.47;2.00;;;;;;;2.13;100.00;100186.50;5946075;29;20036;-72
2024/01/14 08:43:31;;;;;;;15.23;2.27;;;;;;;2.17;100.00;100195.84;5952203;29;20450;-72
2024/01/14 08:46:27;;;;;;;7.80;2.43;;;;;;;2.14;100.00;100179.50;5949614;29;20507;-72
2024/01/14 08:49:24;;;;;;;14.35;2.25;;;;;;;2.13;100.00;100178.66;5952827;29;20039;-72
2024/01/14 08:52:19;;;;;;;19.25;3.63;;;;;;;2.21;100.00;100199.91;5956523;29;20032;-72
2024/01/14 08:55:15;;;;;;;6.00;2.10;;;;;;;2.27;100.00;100191.63;5962492;29;20043;-72
2024/01/14 08:58:10;;;;;;;8.43;2.77;;;;;;;2.23;100.00;100184.94;5955757;29;20035;-71
2024/01/14 09:01:05;;;;;;;11.40;2.10;;;;;;;2.32;100.00;100199.16;5957707;28;20468;-71
2024/01/14 09:04:01;;;;;;;9.33;2.77;;;;;;;2.32;100.00;100191.31;5952493;28;20039;-72
2024/01/14 09:06:56;;;;;;;10.47;2.80;;;;;;;2.32;100.00;100188.69;5942938;29;20055;-72
2024/01/14 09:09:51;;;;;;;6.67;2.00;;;;;;;2.38;100.00;100194.34;5957628;29;20063;-72
2024/01/14 09:12:47;;;;;;;11.85;2.00;;;;;;;2.44;100.00;100192.22;5955602;29;20287;-72
2024/01/14 09:15:42;;;;;;;7.43;2.58;;;;;;;2.44;100.00;100197.47;5951897;29;20118;-72
2024/01/14 09:18:38;;;;;;;13.95;3.20;;;;;;;2.39;100.00;100182.09;5953675;29;20118;-72
2024/01/14 09:21:34;;;;;;;13.63;2.70;;;;;;;2.52;100.00;100179.44;5954574;29;20039;-73
2024/01/14 09:24:30;;;;;;;6.95;3.05;;;;;;;2.44;100.00;100176.53;5953141;29;20028;-73
2024/01/14 09:27:28;;;;;;;11.73;3.58;;;;;;;2.48;100.00;100173.59;5958421;29;20031;-73
2024/01/14 09:30:24;;;;;;;14.07;2.80;;;;;;;2.50;100.00;100181.34;5957198;29;20164;-73
2024/01/14 09:33:20;;;;;;;9.23;2.45;;;;;;;2.56;100.00;100173.88;5956949;29;20055;-73
2024/01/14 09:36:18;;;;;;;10.17;2.33;;;;;;;2.56;100.00;100166.03;5954645;29;20036;-73
2024/01/14 09:39:14;;;;;;;12.50;2.10;;;;;;;2.64;100.00;100174.16;5941702;29;20382;-73
2024/01/14 09:42:22;;;;;;;11.27;2.53;;;;;;;2.69;100.00;100168.63;5952828;29;20394;-73
2024/01/14 09:45:18;;;;;;;11.13;2.67;;;;;;;2.68;100.00;100173.03;5951504;29;20036;-73
2024/01/14 09:48:15;;;;;;;13.45;2.63;;;;;;;2.70;100.00;100157.19;5954636;29;20865;-72
2024/01/14 09:51:10;;;;;;;7.35;1.88;;;;;;;2.73;100.00;100172.69;5953990;29;20040;-72
2024/01/14 09:54:06;;;;;;;10.73;2.58;;;;;;;2.62;100.00;100165.59;5954414;29;20046;-72
2024/01/14 09:57:11;;;;;;;9.57;2.47;;;;;;;2.64;100.00;100173.31;5953716;29;20459;-71
2024/01/14 10:00:07;;;;;;;12.25;2.78;;;;;;;2.56;100.00;100157.34;5957209;28;20031;-72
2024/01/14 10:03:02;;;;;;;7.53;2.70;;;;;;;2.57;100.00;100172.94;5951300;29;20036;-73
2024/01/14 10:05:58;;;;;;;9.63;3.10;;;;;;;2.55;100.00;100153.06;5950429;29;20050;-73
2024/01/14 10:08:54;;;;;;;8.10;2.50;;;;;;;2.59;100.00;100159.75;5952129;29;20039;-72
2024/01/14 10:11:49;;;;;;;13.18;3.13;;;;;;;2.55;100.00;100151.28;5951152;29;20589;-72
2024/01/14 10:14:45;;;;;;;6.73;2.70;;;;;;;2.40;100.00;100140.13;5953411;29;20028;-73
2024/01/14 10:17:44;;;;;;;9.30;3.03;;;;;;;2.40;100.00;100141.91;5960783;29;20285;-72
2024/01/14 10:20:39;;;;;;;14.82;3.38;;;;;;;2.39;100.00;100138.44;5952091;29;20471;-72
2024/01/14 10:23:39;;;;;;;7.77;2.53;;;;;;;2.39;100.00;100133.22;5955419;29;20063;-72
2024/01/14 10:26:35;;;;;;;9.68;2.95;;;;;;;2.45;100.00;100134.56;5946980;29;20035;-72
2024/01/14 10:29:30;;;;;;;8.63;3.17;;;;;;;2.57;100.00;100140.69;5954993;29;20051;-72
2024/01/14 10:32:25;;;;;;;9.73;3.30;;;;;;;2.52;100.00;100140.19;5953363;29;20311;-72
2024/01/14 10:35:23;;;;;;;7.88;3.22;;;;;;;2.44;100.00;100134.69;5946689;29;20040;-72
2024/01/14 10:38:22;;;;;;;8.15;3.70;;;;;;;2.46;100.00;100123.16;5947763;29;20114;-73
2024/01/14 10:41:18;;;;;;;10.63;3.10;;;;;;;2.56;100.00;100125.94;5949464;29;20055;-72
2024/01/14 10:44:15;;;;;;;8.50;2.53;;;;;;;2.66;100.00;100119.13;5950898;29;20036;-73
2024/01/14 10:47:10;;;;;;;11.90;3.25;;;;;;;2.76;100.00;100125.34;5953295;29;20595;-73
2024/01/14 10:50:08;;;;;;;7.67;3.10;;;;;;;2.83;100.00;100116.94;5953048;29;20043;-72
2024/01/14 10:53:07;;;;;;;7.72;2.80;;;;;;;2.72;100.00;100098.56;5952064;29;20067;-72
2024/01/14 10:56:03;;;;;;;9.25;2.97;;;;;;;2.74;100.00;100095.84;5946163;29;20043;-73
2024/01/14 10:59:00;;;;;;;12.90;3.72;;;;;;;2.74;100.00;100074.91;5949837;29;20055;-72
2024/01/14 11:01:57;;;;;;;5.80;2.63;;;;;;;2.64;100.00;100082.56;5954150;29;20373;-73
2024/01/14 11:04:52;;;;;;;8.77;3.83;;;;;;;2.63;100.00;100090.53;5951463;29;20040;-73
2024/01/14 11:07:49;;;;;;;8.73;3.58;;;;;;;2.51;100.00;100087.03;5951134;29;20067;-72
2024/01/14 11:10:45;;;;;;;9.32;3.55;;;;;;;2.49;100.00;100077.63;5954731;29;20044;-73
2024/01/14 11:13:52;;;;;;;9.30;3.85;;;;;;;2.48;100.00;100079.41;5942803;29;20031;-72
2024/01/14 11:17:04;;;;;;;14.52;4.20;;;;;;;2.41;100.00;100075.56;5947277;29;20091;-72
2024/01/14 11:20:00;;;;;;;9.98;3.17;;;;;;;2.46;100.00;100075.22;5949588;29;20039;-73
2024/01/14 11:22:56;;;;;;;16.27;4.82;;;;;;;2.49;100.00;100080.25;5954179;29;20046;-72
2024/01/14 11:25:51;;;;;;;11.53;4.13;;;;;;;2.47;100.00;100067.28;5950071;29;20411;-73
2024/01/14 11:28:46;;;;;;;11.47;4.10;;;;;;;2.47;100.00;100071.66;5954751;29;20153;-73
2024/01/14 11:32:03;;;;;;;10.93;4.60;;;;;;;2.45;100.00;100058.69;5954971;29;20035;-74
2024/01/14 11:34:59;;;;;;;10.45;4.50;;;;;;;2.46;100.00;100057.75;5948936;29;20791;-72
2024/01/14 11:37:56;;;;;;;12.20;4.57;;;;;;;2.38;100.00;100045.22;5945177;29;20050;-73
2024/01/14 11:40:54;;;;;;;13.10;4.28;;;;;;;2.33;100.00;100034.28;5952088;29;20162;-74
2024/01/14 11:43:53;;;;;;;9.75;3.80;;;;;;;2.34;100.00;100041.16;5953407;29;20455;-73
2024/01/14 11:46:50;;;;;;;11.80;4.18;;;;;;;2.17;100.00;100027.63;5945933;29;20110;-73
2024/01/14 11:49:50;;;;;;;12.48;4.43;;;;;;;2.18;100.00;100048.44;5946090;29;20031;-73
2024/01/14 11:52:47;;;;;;;10.70;4.25;;;;;;;2.11;100.00;100047.19;5957794;29;20472;-70
2024/01/14 11:55:42;;;;;;;8.07;3.60;;;;;;;1.91;100.00;100041.69;5949646;29;20035;-72
2024/01/14 11:58:38;;;;;;;10.02;4.18;;;;;;;1.81;100.00;100025.84;5947887;29;20507;-72
2024/01/14 12:01:33;;;;;;;11.60;4.43;;;;;;;1.76;100.00;100013.09;5952493;29;20085;-72
2024/01/14 12:04:30;;;;;;;11.45;4.28;;;;;;;1.71;100.00;100014.38;5954954;29;20056;-71
2024/01/14 12:07:25;;;;;;;12.07;4.60;;;;;;;1.71;100.00;99993.47;5953367;29;20119;-72
2024/01/14 12:10:21;;;;;;;10.02;3.90;;;;;;;1.68;100.00;99994.53;5951500;29;20043;-72
2024/01/14 12:13:16;;;;;;;9.90;4.17;;;;;;;1.78;100.00;99989.47;5950807;29;20042;-72
2024/01/14 12:16:11;;;;;;;12.93;4.70;;;;;;;1.73;100.00;99983.72;5952739;29;20044;-72
2024/01/14 12:19:18;;;;;;;16.07;5.83;;;;;;;1.74;100.00;99969.69;5953828;29;20068;-72
2024/01/14 12:22:13;;;;;;;16.73;5.07;;;;;;;1.79;100.00;99957.97;5954189;29;20035;-72
2024/01/14 12:25:09;;;;;;;16.17;5.57;;;;;;;1.78;100.00;99964.16;5955077;29;20412;-72
2024/01/14 12:28:05;;;;;;;15.43;5.60;;;;;;;1.77;100.00;99952.03;5958111;29;20364;-72
2024/01/14 12:31:00;;;;;;;16.10;6.07;;;;;;;1.71;100.00;99935.97;5949263;29;20472;-72
2024/01/14 12:33:55;;;;;;;20.43;6.70;;;;;;;1.80;100.00;99940.53;5955966;29;20038;-73
2024/01/14 12:36:51;;;;;;;19.27;5.60;;;;;;;1.84;100.00;99939.38;5949638;29;20036;-72
2024/01/14 12:39:46;;;;;;;19.35;6.72;;;;;;;1.80;100.00;99935.31;5950706;29;20062;-73
2024/01/14 12:42:42;;;;;;;17.75;6.78;;;;;;;1.74;100.00;99920.91;5954773;29;20038;-72
2024/01/14 12:45:45;;;;;;;17.92;5.93;;;;;;;1.75;100.00;99924.34;5960581;29;20391;-70
2024/01/14 12:48:42;;;;;;;15.88;5.28;;;;;;;1.87;100.00;99920.03;5954285;29;20039;-71
2024/01/14 12:51:38;;;;;;;18.02;5.40;;;;;;;1.83;100.00;99916.78;5955378;29;20499;-71
2024/01/14 12:54:33;;;;;;;20.17;6.13;;;;;;;1.86;100.00;99907.91;5954313;29;20118;-71
2024/01/14 12:57:29;;;;;;;21.75;5.68;;;;;;;1.82;100.00;99894.22;5959513;29;20291;-72
2024/01/14 13:00:24;;;;;;;16.48;5.53;;;;;;;1.88;100.00;99895.53;5955689;29;20040;-72
2024/01/14 13:03:19;;;;;;;16.45;5.75;;;;;;;1.88;100.00;99896.38;5950229;29;20487;-72
2024/01/14 13:06:15;;;;;;;15.10;6.10;;;;;;;1.92;100.00;99892.63;5954508;29;20039;-71
2024/01/14 13:09:11;;;;;;;18.20;5.07;;;;;;;1.93;100.00;99890.84;5954027;29;20035;-70
2024/01/14 13:12:06;;;;;;;20.77;6.00;;;;;;;1.89;100.00;99887.59;5957294;29;20035;-71
2024/01/14 13:15:01;;;;;;;11.63;4.17;;;;;;;1.86;100.00;99879.97;5958123;29;20086;-71
2024/01/14 13:17:58;;;;;;;15.05;5.03;;;;;;;1.77;100.00;99878.88;5955313;29;20350;-71
2024/01/14 13:20:53;;;;;;;13.73;4.88;;;;;;;1.76;100.00;99877.22;5953514;29;20115;-71
2024/01/14 13:23:49;;;;;;;15.48;4.60;;;;;;;1.74;100.00;99876.47;5948397;29;20534;-71
2024/01/14 13:26:44;;;;;;;11.05;4.70;;;;;;;1.73;100.00;99871.38;5958488;29;20082;-71
2024/01/14 13:29:39;;;;;;;11.77;4.27;;;;;;;1.74;100.00;99867.78;5952003;29;20043;-71
2024/01/14 13:32:36;;;;;;;10.90;4.60;;;;;;;1.74;100.00;99867.78;5955943;29;20564;-71